Time;durP1;ratioP1;P1;durP2;ratioP2;P2;SDS_P1;SDS_P2;PMS_P1;PMS_P2;Temp;Humidity;BMP_temperature;BMP_pressure;BME280_temperature;BME280_humidity;BME280_pressure;Samples;Min_cycle;Max_cycle;Signal;HPM_P1;HPM_P2
2023/03/17 00:01:21;;;;;;;4.30;2.87;;;6.40;99.90;;;;;;4992223;28;20483;-66
2023/03/17 00:03:50;;;;;;;3.80;2.60;;;6.40;99.90;;;;;;4998481;28;20483;-66
2023/03/17 00:06:24;;;;;;;2.40;2.20;;;6.40;99.90;;;;;;4997263;28;20555;-66
2023/03/17 00:08:52;;;;;;;2.97;2.67;;;6.40;99.90;;;;;;5000605;28;20480;-66
2023/03/17 00:11:22;;;;;;;2.93;2.60;;;6.40;99.90;;;;;;4988940;28;20484;-66
2023/03/17 00:13:51;;;;;;;3.20;2.50;;;6.40;99.90;;;;;;4987908;28;20938;-65
2023/03/17 00:16:21;;;;;;;4.63;2.50;;;6.40;99.90;;;;;;4991166;28;20492;-66
2023/03/17 00:18:51;;;;;;;3.37;3.07;;;6.40;99.90;;;;;;4993733;28;20473;-66
2023/03/17 00:21:25;;;;;;;2.80;2.60;;;6.40;99.90;;;;;;4992845;28;20491;-65
2023/03/17 00:23:55;;;;;;;3.03;2.73;;;6.30;99.90;;;;;;4998467;28;20472;-66
2023/03/17 00:26:25;;;;;;;2.87;2.63;;;6.30;99.90;;;;;;5001691;28;20464;-65
2023/03/17 00:28:54;;;;;;;3.20;2.90;;;6.30;99.90;;;;;;4993228;28;20473;-67
2023/03/17 00:31:25;;;;;;;3.53;2.77;;;6.30;99.90;;;;;;5000003;28;20887;-66
2023/03/17 00:33:54;;;;;;;3.50;2.77;;;6.30;99.90;;;;;;5001683;28;20913;-67
2023/03/17 00:36:24;;;;;;;2.50;2.30;;;6.30;99.90;;;;;;4995961;28;20872;-66
2023/03/17 00:38:52;;;;;;;2.67;2.47;;;6.30;99.90;;;;;;4999558;28;20469;-65
2023/03/17 00:41:21;;;;;;;2.47;2.27;;;6.30;99.90;;;;;;4994546;28;20481;-66
2023/03/17 00:43:50;;;;;;;2.83;2.63;;;6.30;99.90;;;;;;4997600;28;20477;-66
2023/03/17 00:46:23;;;;;;;3.50;2.83;;;6.30;99.90;;;;;;4997251;28;20515;-66
2023/03/17 00:48:51;;;;;;;3.10;2.73;;;6.30;99.90;;;;;;4998338;28;20495;-66
2023/03/17 00:51:19;;;;;;;3.63;3.10;;;6.20;99.90;;;;;;4997453;28;20491;-65
2023/03/17 00:53:48;;;;;;;2.90;2.70;;;6.20;99.90;;;;;;4990713;28;20493;-65
2023/03/17 00:56:18;;;;;;;2.90;2.70;;;6.20;99.90;;;;;;4991361;28;20508;-65
2023/03/17 00:58:46;;;;;;;2.87;2.67;;;6.20;99.90;;;;;;4989895;28;20469;-65
2023/03/17 01:01:17;;;;;;;3.60;2.47;;;6.20;99.90;;;;;;4999573;28;20501;-66
2023/03/17 01:03:45;;;;;;;2.83;2.33;;;6.20;99.90;;;;;;4998457;28;20468;-66
2023/03/17 01:06:14;;;;;;;4.43;2.90;;;6.20;99.90;;;;;;4998703;28;20551;-67
2023/03/17 01:08:44;;;;;;;2.90;2.70;;;6.10;99.90;;;;;;4998196;28;20472;-66
2023/03/17 01:11:17;;;;;;;3.07;2.77;;;6.20;99.90;;;;;;4998370;28;21025;-66
2023/03/17 01:13:45;;;;;;;4.83;2.90;;;6.10;99.90;;;;;;4991561;28;20484;-66
2023/03/17 01:16:15;;;;;;;4.80;2.97;;;6.10;99.90;;;;;;4995525;28;20500;-65
2023/03/17 01:18:44;;;;;;;4.43;2.87;;;6.10;99.90;;;;;;4993295;28;20485;-66
2023/03/17 01:21:12;;;;;;;3.40;3.10;;;6.10;99.90;;;;;;4993342;28;20489;-66
2023/03/17 01:23:41;;;;;;;3.90;3.10;;;6.00;99.90;;;;;;4993980;28;20472;-66
2023/03/17 01:26:08;;;;;;;3.20;2.97;;;6.00;99.90;;;;;;4996713;28;20472;-66
2023/03/17 01:28:36;;;;;;;5.63;3.20;;;6.00;99.90;;;;;;4997267;28;20564;-67
2023/03/17 01:31:05;;;;;;;3.60;3.30;;;6.00;99.90;;;;;;4993365;28;20591;-65
2023/03/17 01:33:34;;;;;;;5.60;3.33;;;5.90;99.90;;;;;;4989933;28;20472;-66
2023/03/17 01:36:02;;;;;;;2.93;2.70;;;5.90;99.90;;;;;;4994620;28;20512;-66
2023/03/17 01:38:31;;;;;;;3.50;3.20;;;5.90;99.90;;;;;;4995862;28;20472;-66
2023/03/17 01:41:02;;;;;;;3.17;2.87;;;5.90;99.90;;;;;;4982950;28;20490;-66
2023/03/17 01:43:30;;;;;;;5.90;3.60;;;5.90;99.90;;;;;;4996539;28;21020;-66
2023/03/17 01:46:28;;;;;;;3.40;2.93;;;5.90;99.90;;;;;;4988304;28;20483;-66
2023/03/17 01:49:03;;;;;;;3.40;3.03;;;5.90;99.90;;;;;;4998569;28;20922;-66
2023/03/17 01:51:35;;;;;;;3.10;2.80;;;5.80;99.90;;;;;;4994875;28;20609;-66
2023/03/17 01:54:07;;;;;;;3.50;3.20;;;5.80;99.90;;;;;;4995701;28;20485;-65
2023/03/17 01:56:36;;;;;;;3.40;3.10;;;5.80;99.90;;;;;;4984965;28;20503;-66
2023/03/17 01:59:08;;;;;;;4.07;3.67;;;5.80;99.90;;;;;;4988397;28;20477;-66
2023/03/17 02:01:42;;;;;;;3.83;3.53;;;5.80;99.90;;;;;;4991320;28;20515;-66
2023/03/17 02:04:13;;;;;;;4.57;3.47;;;5.80;99.90;;;;;;4993817;28;20472;-66
2023/03/17 02:06:41;;;;;;;3.50;3.07;;;5.80;99.90;;;;;;4994148;28;20845;-67
2023/03/17 02:09:25;;;;;;;3.53;3.20;;;5.80;99.90;;;;;;4993997;28;20534;-66
2023/03/17 02:11:53;;;;;;;4.00;3.70;;;5.80;99.90;;;;;;4997414;28;20512;-66
2023/03/17 02:14:21;;;;;;;3.57;3.23;;;5.70;99.90;;;;;;4998616;28;20477;-66
2023/03/17 02:16:49;;;;;;;3.60;3.30;;;5.70;99.90;;;;;;4999295;28;20503;-66
2023/03/17 02:19:19;;;;;;;3.70;3.20;;;5.70;99.90;;;;;;4992715;28;20497;-67
2023/03/17 02:21:50;;;;;;;3.83;3.53;;;5.70;99.90;;;;;;4996087;28;20884;-66
2023/03/17 02:24:27;;;;;;;3.70;3.40;;;5.70;99.90;;;;;;4995209;28;20598;-65
2023/03/17 02:27:00;;;;;;;3.60;3.40;;;5.70;99.90;;;;;;4986232;28;20461;-66
2023/03/17 02:29:28;;;;;;;3.40;3.20;;;5.70;99.90;;;;;;4987307;28;21032;-65
2023/03/17 02:31:56;;;;;;;5.37;3.43;;;5.70;99.90;;;;;;4993110;28;20496;-67
2023/03/17 02:34:24;;;;;;;4.23;3.83;;;5.70;99.90;;;;;;4989509;28;20495;-65
2023/03/17 02:36:53;;;;;;;3.07;2.87;;;5.70;99.90;;;;;;4989802;28;20510;-66
2023/03/17 02:39:21;;;;;;;4.50;3.50;;;5.70;99.90;;;;;;4997311;28;20586;-66
2023/03/17 02:41:49;;;;;;;4.30;3.90;;;5.70;99.90;;;;;;4991597;28;20491;-65
2023/03/17 02:44:17;;;;;;;5.50;3.67;;;5.70;99.90;;;;;;4989837;28;20479;-66
2023/03/17 02:46:45;;;;;;;4.33;3.53;;;5.70;99.90;;;;;;4987299;28;20566;-66
2023/03/17 02:49:15;;;;;;;3.73;3.40;;;5.70;99.90;;;;;;4991737;28;21219;-65
2023/03/17 02:51:43;;;;;;;4.20;3.87;;;5.70;99.90;;;;;;4989466;28;20865;-66
2023/03/17 02:54:13;;;;;;;3.57;3.27;;;5.70;99.90;;;;;;4987605;28;20556;-66
2023/03/17 02:56:41;;;;;;;3.77;3.40;;;5.70;99.90;;;;;;4986543;28;22760;-65
2023/03/17 02:59:09;;;;;;;5.50;3.60;;;5.70;99.90;;;;;;4988429;28;20483;-66
2023/03/17 03:01:38;;;;;;;4.10;3.40;;;5.80;99.90;;;;;;4987983;28;20490;-66
2023/03/17 03:04:07;;;;;;;4.60;4.10;;;5.70;99.90;;;;;;4990079;28;20480;-65
2023/03/17 03:06:36;;;;;;;4.23;3.93;;;5.70;99.90;;;;;;4993985;28;20472;-65
2023/03/17 03:09:04;;;;;;;3.40;3.20;;;5.70;99.90;;;;;;4996121;28;20476;-66
2023/03/17 03:11:33;;;;;;;5.30;3.53;;;5.70;99.90;;;;;;4997574;28;20493;-66
2023/03/17 03:14:02;;;;;;;3.93;3.63;;;5.70;99.90;;;;;;4996780;28;20495;-66
2023/03/17 03:16:30;;;;;;;4.10;3.80;;;5.70;99.90;;;;;;5002627;28;20495;-67
2023/03/17 03:18:58;;;;;;;5.13;3.90;;;5.70;99.90;;;;;;4992129;28;20494;-66
2023/03/17 03:21:26;;;;;;;4.40;4.03;;;5.70;99.90;;;;;;4992760;28;20496;-66
2023/03/17 03:23:54;;;;;;;4.50;4.10;;;5.70;99.90;;;;;;4994145;28;20471;-66
2023/03/17 03:26:22;;;;;;;4.13;3.73;;;5.70;99.90;;;;;;4993175;28;20550;-66
2023/03/17 03:28:52;;;;;;;4.30;3.90;;;5.70;99.90;;;;;;4989014;28;20480;-65
2023/03/17 03:31:20;;;;;;;4.13;3.73;;;5.70;99.90;;;;;;4994086;28;20495;-65
2023/03/17 03:33:48;;;;;;;5.27;4.67;;;5.70;99.90;;;;;;4989820;28;20545;-65
2023/03/17 03:36:17;;;;;;;4.30;3.90;;;5.70;99.90;;;;;;4991146;28;20966;-67
2023/03/17 03:38:45;;;;;;;4.77;3.67;;;5.70;99.90;;;;;;4992318;28;20504;-66
2023/03/17 03:41:13;;;;;;;4.23;3.83;;;5.70;99.90;;;;;;4983057;28;20530;-66
2023/03/17 03:43:41;;;;;;;4.83;4.40;;;5.70;99.90;;;;;;4991455;28;20526;-65
2023/03/17 03:46:10;;;;;;;4.17;3.80;;;5.70;99.90;;;;;;4985455;28;20468;-66
2023/03/17 03:48:38;;;;;;;4.87;4.47;;;5.60;99.90;;;;;;4990536;28;21063;-66
2023/03/17 03:51:06;;;;;;;5.13;4.40;;;5.60;99.90;;;;;;4988439;28;20500;-66
2023/03/17 03:53:34;;;;;;;4.70;3.97;;;5.60;99.90;;;;;;4993623;28;20467;-66
2023/03/17 03:56:02;;;;;;;5.57;5.07;;;5.60;99.90;;;;;;4985763;28;20472;-66
2023/03/17 03:58:30;;;;;;;4.50;4.00;;;5.60;99.90;;;;;;4989573;28;20493;-65
2023/03/17 04:00:58;;;;;;;5.50;3.97;;;5.60;99.90;;;;;;4992791;28;21719;-66
2023/03/17 04:03:28;;;;;;;4.97;4.00;;;5.60;99.90;;;;;;4986066;28;21134;-66
2023/03/17 04:05:56;;;;;;;4.23;3.90;;;5.50;99.90;;;;;;4990500;28;20997;-65
2023/03/17 04:08:24;;;;;;;5.23;4.73;;;5.50;99.90;;;;;;4985352;28;20464;-66
2023/03/17 04:10:52;;;;;;;4.47;4.00;;;5.50;99.90;;;;;;4996475;28;20502;-65
2023/03/17 04:13:21;;;;;;;4.67;4.20;;;5.40;99.90;;;;;;4994116;28;20476;-66
2023/03/17 04:15:48;;;;;;;5.37;4.40;;;5.40;99.90;;;;;;4998326;28;20477;-65
2023/03/17 04:18:17;;;;;;;4.27;3.87;;;5.40;99.90;;;;;;4999720;28;20922;-66
2023/03/17 04:20:46;;;;;;;4.27;3.93;;;5.40;99.90;;;;;;4999260;28;20866;-66
2023/03/17 04:23:14;;;;;;;4.87;4.47;;;5.40;99.90;;;;;;4998613;28;20472;-66
2023/03/17 04:25:42;;;;;;;4.70;4.30;;;5.40;99.90;;;;;;4999404;28;20836;-66
2023/03/17 04:28:11;;;;;;;4.80;4.40;;;5.40;99.90;;;;;;4999640;28;20476;-66
2023/03/17 04:30:39;;;;;;;8.87;5.00;;;5.40;99.90;;;;;;4998102;28;20526;-65
2023/03/17 04:33:07;;;;;;;5.53;4.53;;;5.30;99.90;;;;;;5000054;28;20511;-66
2023/03/17 04:35:35;;;;;;;4.63;4.23;;;5.30;99.90;;;;;;5000129;28;20994;-65
2023/03/17 04:38:04;;;;;;;5.43;4.60;;;5.30;99.90;;;;;;4999043;28;20905;-65
2023/03/17 04:40:32;;;;;;;5.67;4.20;;;5.30;99.90;;;;;;4996177;28;20496;-66
2023/03/17 04:43:00;;;;;;;5.83;4.90;;;5.30;99.90;;;;;;4992229;28;20911;-66
2023/03/17 04:45:30;;;;;;;6.17;4.97;;;5.20;99.90;;;;;;4999471;28;20481;-66
2023/03/17 04:47:58;;;;;;;5.80;4.30;;;5.30;99.90;;;;;;4998372;28;20471;-66
2023/03/17 04:50:26;;;;;;;6.27;4.90;;;5.20;99.90;;;;;;4993516;28;20502;-65
2023/03/17 04:52:54;;;;;;;5.50;4.90;;;5.20;99.90;;;;;;4993273;28;20472;-66
2023/03/17 04:55:23;;;;;;;6.50;4.60;;;5.20;99.90;;;;;;4998447;28;20476;-65
2023/03/17 04:57:51;;;;;;;5.10;4.03;;;5.20;99.90;;;;;;4987274;28;20506;-66
2023/03/17 05:00:20;;;;;;;6.00;4.90;;;5.20;99.90;;;;;;4993875;28;20506;-65
2023/03/17 05:02:48;;;;;;;6.50;5.17;;;5.20;99.90;;;;;;4992663;28;20480;-66
2023/03/17 05:05:16;;;;;;;5.23;4.73;;;5.20;99.90;;;;;;4987809;28;20477;-66
2023/03/17 05:07:44;;;;;;;6.20;4.40;;;5.20;99.90;;;;;;4991356;28;21156;-66
2023/03/17 05:10:12;;;;;;;4.93;4.43;;;5.20;99.90;;;;;;4990857;28;20500;-66
2023/03/17 05:12:41;;;;;;;5.43;4.43;;;5.10;99.90;;;;;;4991687;28;20498;-66
2023/03/17 05:15:10;;;;;;;5.60;4.70;;;5.20;99.90;;;;;;4989552;28;20484;-66
2023/03/17 05:17:38;;;;;;;4.70;4.17;;;5.20;99.90;;;;;;4982430;28;20506;-65
2023/03/17 05:20:08;;;;;;;6.03;5.07;;;5.10;99.90;;;;;;4988618;28;20978;-66
2023/03/17 05:22:36;;;;;;;5.00;4.60;;;5.10;99.90;;;;;;4993286;28;20484;-66
2023/03/17 05:25:05;;;;;;;5.27;4.37;;;5.10;99.90;;;;;;4992921;28;20472;-66
2023/03/17 05:27:33;;;;;;;4.97;4.57;;;5.10;99.90;;;;;;4998666;28;20479;-66
2023/03/17 05:30:03;;;;;;;5.20;4.70;;;5.10;99.90;;;;;;4999984;28;20496;-66
2023/03/17 05:32:31;;;;;;;7.03;5.40;;;5.00;99.90;;;;;;4999470;28;20508;-66
2023/03/17 05:34:59;;;;;;;5.53;5.03;;;5.00;99.90;;;;;;4995610;28;20553;-66
2023/03/17 05:37:27;;;;;;;5.00;4.50;;;5.00;99.90;;;;;;4988244;28;20484;-66
2023/03/17 05:39:55;;;;;;;5.40;4.50;;;5.00;99.90;;;;;;4980297;28;20553;-66
2023/03/17 05:42:23;;;;;;;5.73;5.23;;;4.90;99.90;;;;;;4988255;28;20488;-66
2023/03/17 05:44:50;;;;;;;8.43;5.23;;;5.00;99.90;;;;;;4990637;28;20523;-66
2023/03/17 05:47:21;;;;;;;5.50;4.90;;;4.90;99.90;;;;;;4989101;28;20477;-65
2023/03/17 05:49:49;;;;;;;6.00;5.40;;;4.90;99.90;;;;;;4990423;28;20993;-65
2023/03/17 05:52:17;;;;;;;7.43;5.13;;;4.90;99.90;;;;;;4991556;28;20484;-66
2023/03/17 05:54:47;;;;;;;5.50;4.80;;;4.90;99.90;;;;;;4991652;28;20488;-66
2023/03/17 05:57:16;;;;;;;5.53;5.03;;;4.90;99.90;;;;;;4992382;28;20476;-67
2023/03/17 05:59:44;;;;;;;5.50;5.00;;;4.90;99.90;;;;;;4985666;28;21011;-66
2023/03/17 06:02:13;;;;;;;6.00;5.40;;;4.90;99.90;;;;;;4986810;28;21942;-66
2023/03/17 06:04:43;;;;;;;5.87;5.27;;;4.90;99.90;;;;;;4978482;28;20480;-66
2023/03/17 06:07:11;;;;;;;7.33;5.20;;;4.90;99.90;;;;;;4993403;28;20492;-66
2023/03/17 06:09:40;;;;;;;6.00;5.03;;;5.00;99.90;;;;;;4983505;28;20496;-65
2023/03/17 06:12:09;;;;;;;5.30;4.83;;;5.00;99.90;;;;;;4985829;28;20519;-65
2023/03/17 06:14:37;;;;;;;5.90;5.30;;;5.00;99.90;;;;;;4992712;28;20469;-65
2023/03/17 06:17:05;;;;;;;6.70;5.20;;;5.00;99.90;;;;;;4991981;28;20957;-65
2023/03/17 06:19:33;;;;;;;6.00;5.50;;;5.00;99.90;;;;;;4991402;28;20500;-66
2023/03/17 06:22:02;;;;;;;5.97;5.10;;;5.00;99.90;;;;;;4985306;28;20481;-66
2023/03/17 06:24:30;;;;;;;5.73;5.07;;;5.10;99.90;;;;;;4992367;28;20471;-65
2023/03/17 06:26:58;;;;;;;5.60;5.00;;;5.10;99.90;;;;;;4997929;28;20476;-66
2023/03/17 06:29:27;;;;;;;5.23;4.83;;;5.10;99.90;;;;;;4998406;28;20484;-66
2023/03/17 06:31:55;;;;;;;6.77;5.67;;;5.20;99.90;;;;;;4995758;28;20867;-66
2023/03/17 06:34:28;;;;;;;6.80;5.17;;;5.20;99.90;;;;;;4991027;28;20487;-66
2023/03/17 06:36:56;;;;;;;6.00;5.50;;;5.20;99.90;;;;;;4991597;28;20479;-65
2023/03/17 06:39:25;;;;;;;6.00;5.40;;;5.20;99.90;;;;;;4992206;28;21045;-65
2023/03/17 06:41:53;;;;;;;5.83;5.33;;;5.20;99.90;;;;;;4992256;28;20487;-66
2023/03/17 06:44:21;;;;;;;7.80;5.17;;;5.20;99.90;;;;;;4993974;28;20483;-66
2023/03/17 06:46:49;;;;;;;6.10;5.50;;;5.20;99.90;;;;;;4972761;28;20472;-65
2023/03/17 06:49:18;;;;;;;6.00;5.33;;;5.30;99.90;;;;;;4969402;28;20531;-65
2023/03/17 06:51:45;;;;;;;6.47;5.87;;;5.30;99.90;;;;;;4976077;28;20555;-66
2023/03/17 06:54:13;;;;;;;6.27;5.67;;;5.30;99.90;;;;;;4994655;28;20481;-66
2023/03/17 06:56:43;;;;;;;6.50;5.80;;;5.40;99.90;;;;;;4995777;28;21094;-64
2023/03/17 06:59:12;;;;;;;6.23;5.63;;;5.40;99.90;;;;;;4994654;28;20498;-65
2023/03/17 07:01:40;;;;;;;6.40;5.80;;;5.50;99.90;;;;;;4996096;28;20484;-66
2023/03/17 07:04:08;;;;;;;6.10;5.37;;;5.50;99.90;;;;;;4993885;28;20890;-65
2023/03/17 07:06:36;;;;;;;6.40;5.80;;;5.60;99.90;;;;;;4994613;28;20657;-66
2023/03/17 07:09:06;;;;;;;6.40;5.80;;;5.60;99.90;;;;;;4990843;28;20469;-66
2023/03/17 07:11:34;;;;;;;6.27;5.67;;;5.70;99.90;;;;;;4994043;28;20500;-66
2023/03/17 07:14:04;;;;;;;6.57;5.97;;;5.70;99.90;;;;;;4991167;28;21013;-66
2023/03/17 07:16:32;;;;;;;7.80;6.17;;;5.80;99.90;;;;;;4993792;28;20848;-66
2023/03/17 07:19:01;;;;;;;5.90;5.30;;;5.80;99.90;;;;;;4995740;28;20583;-65
2023/03/17 07:21:29;;;;;;;6.70;5.50;;;5.90;99.90;;;;;;4990221;28;20492;-66
2023/03/17 07:23:57;;;;;;;5.97;5.37;;;5.90;99.90;;;;;;4996641;28;20471;-66
2023/03/17 07:26:25;;;;;;;6.53;5.90;;;5.90;99.90;;;;;;4994770;28;20473;-65
2023/03/17 07:28:53;;;;;;;6.47;5.80;;;6.00;99.90;;;;;;4993585;28;21050;-66
2023/03/17 07:31:23;;;;;;;7.50;6.77;;;6.00;99.90;;;;;;4994869;28;21535;-66
2023/03/17 07:33:51;;;;;;;8.50;6.10;;;6.10;99.90;;;;;;4994751;28;20476;-66
2023/03/17 07:36:18;;;;;;;6.03;5.50;;;6.10;99.90;;;;;;4994555;28;20464;-66
2023/03/17 07:38:47;;;;;;;6.73;6.17;;;6.20;99.90;;;;;;4993856;28;20480;-66
2023/03/17 07:41:15;;;;;;;6.10;5.50;;;6.30;99.90;;;;;;4991431;28;20488;-65
2023/03/17 07:43:43;;;;;;;6.60;5.90;;;6.40;99.90;;;;;;4993808;28;20479;-64
2023/03/17 07:46:12;;;;;;;6.17;5.57;;;6.40;99.90;;;;;;4989325;28;20468;-66
2023/03/17 07:48:42;;;;;;;7.40;6.30;;;6.50;99.90;;;;;;4989042;28;20838;-66
2023/03/17 07:51:14;;;;;;;6.53;5.90;;;6.60;99.90;;;;;;4985718;28;20503;-66
2023/03/17 07:53:43;;;;;;;6.73;6.10;;;6.70;99.90;;;;;;4987080;28;20480;-66
2023/03/17 07:56:12;;;;;;;6.03;5.43;;;6.80;99.90;;;;;;4989821;28;20870;-66
2023/03/17 07:58:40;;;;;;;6.37;5.60;;;6.80;99.90;;;;;;4987955;28;20497;-66
2023/03/17 08:01:08;;;;;;;6.50;5.90;;;6.80;99.90;;;;;;4989411;28;20507;-65
2023/03/17 08:03:37;;;;;;;7.43;6.67;;;6.90;99.90;;;;;;4981654;28;20558;-65
2023/03/17 08:06:10;;;;;;;5.77;5.27;;;6.90;99.90;;;;;;4980452;28;20534;-65
2023/03/17 08:08:38;;;;;;;5.93;5.27;;;6.90;99.90;;;;;;4981996;28;20698;-65
2023/03/17 08:11:06;;;;;;;6.17;5.67;;;6.90;99.90;;;;;;4984764;28;20818;-66
2023/03/17 08:13:34;;;;;;;6.90;5.83;;;7.00;99.90;;;;;;4988703;28;20520;-66
2023/03/17 08:16:02;;;;;;;6.33;5.73;;;7.00;99.90;;;;;;4988566;28;20547;-66
2023/03/17 08:18:30;;;;;;;5.87;5.37;;;7.10;99.90;;;;;;4989593;28;20478;-66
2023/03/17 08:20:58;;;;;;;5.33;4.83;;;7.20;99.90;;;;;;4986681;28;20500;-64
2023/03/17 08:23:28;;;;;;;6.33;5.63;;;7.40;99.90;;;;;;4987334;28;20495;-66
2023/03/17 08:25:59;;;;;;;6.87;6.23;;;7.50;99.90;;;;;;4992389;28;20482;-66
2023/03/17 08:28:27;;;;;;;7.00;5.90;;;7.60;99.90;;;;;;4988982;28;21108;-66
2023/03/17 08:31:05;;;;;;;6.47;5.57;;;7.70;99.90;;;;;;4986454;28;20492;-65
2023/03/17 08:33:36;;;;;;;5.70;5.17;;;7.80;99.90;;;;;;4989008;28;20476;-65
2023/03/17 08:36:05;;;;;;;6.00;5.00;;;7.90;99.90;;;;;;4995248;28;21145;-67
2023/03/17 08:38:35;;;;;;;6.60;6.00;;;8.00;99.90;;;;;;4987147;28;20491;-65
2023/03/17 08:41:05;;;;;;;6.53;5.90;;;8.10;99.90;;;;;;4979008;28;21118;-66
2023/03/17 08:43:33;;;;;;;5.97;5.23;;;8.20;99.90;;;;;;4983074;28;20472;-66
2023/03/17 08:46:05;;;;;;;6.00;5.40;;;8.30;99.90;;;;;;4986539;28;20981;-65
2023/03/17 08:48:36;;;;;;;6.43;5.83;;;8.40;99.90;;;;;;4988993;28;20480;-65
2023/03/17 08:51:05;;;;;;;6.67;6.07;;;8.40;99.90;;;;;;4985526;28;20499;-66
2023/03/17 08:53:36;;;;;;;5.27;4.60;;;8.50;99.90;;;;;;4989663;28;20563;-66
2023/03/17 08:56:05;;;;;;;6.73;5.20;;;8.60;99.90;;;;;;4976023;28;21147;-66
2023/03/17 08:58:34;;;;;;;5.43;4.93;;;8.70;99.90;;;;;;4984757;28;20857;-66
2023/03/17 09:01:04;;;;;;;5.60;5.07;;;8.80;99.90;;;;;;4990264;28;20504;-66
2023/03/17 09:03:32;;;;;;;5.43;5.00;;;8.90;99.90;;;;;;4996047;28;20563;-66
2023/03/17 09:06:03;;;;;;;4.70;4.30;;;9.00;99.90;;;;;;4979661;28;20484;-66
2023/03/17 09:08:31;;;;;;;5.10;4.63;;;9.10;99.90;;;;;;4984724;28;20851;-66
2023/03/17 09:11:04;;;;;;;5.23;4.33;;;9.30;99.90;;;;;;4986039;28;20508;-65
2023/03/17 09:13:32;;;;;;;5.37;4.40;;;9.40;99.90;;;;;;4989824;28;20468;-66
2023/03/17 09:16:01;;;;;;;4.87;4.40;;;9.60;99.90;;;;;;4984638;28;20468;-65
2023/03/17 09:18:30;;;;;;;5.23;4.50;;;9.70;99.90;;;;;;4986887;28;20507;-65
2023/03/17 09:20:58;;;;;;;5.50;3.90;;;9.80;99.90;;;;;;4984278;28;21311;-66
2023/03/17 09:23:26;;;;;;;5.23;4.00;;;10.00;99.90;;;;;;4982516;28;21003;-66
2023/03/17 09:25:54;;;;;;;6.53;4.30;;;10.10;99.90;;;;;;4986943;28;20475;-66
2023/03/17 09:28:24;;;;;;;4.80;4.23;;;10.20;99.90;;;;;;4980048;28;20464;-66
2023/03/17 09:30:52;;;;;;;3.87;3.57;;;10.30;99.90;;;;;;4992490;28;21627;-66
2023/03/17 09:33:20;;;;;;;4.40;4.00;;;10.30;99.90;;;;;;4991819;28;20473;-66
2023/03/17 09:35:51;;;;;;;4.03;3.73;;;10.40;99.90;;;;;;4989947;28;20853;-66
2023/03/17 09:38:19;;;;;;;4.13;3.73;;;10.50;99.90;;;;;;4983332;28;20478;-65
2023/03/17 09:40:49;;;;;;;5.80;4.00;;;10.60;99.90;;;;;;4983958;28;21000;-66
2023/03/17 09:43:26;;;;;;;5.03;3.73;;;10.70;99.90;;;;;;4989308;28;20495;-67
2023/03/17 09:45:55;;;;;;;4.00;3.60;;;10.80;99.90;;;;;;4989653;28;20480;-66
2023/03/17 09:48:42;;;;;;;4.20;3.80;;;10.90;99.90;;;;;;4990827;28;20481;-66
2023/03/17 09:51:13;;;;;;;5.80;4.20;;;11.00;99.90;;;;;;4988630;28;20480;-66
2023/03/17 09:53:48;;;;;;;4.47;4.07;;;11.10;99.90;;;;;;4991456;28;20469;-66
2023/03/17 09:56:18;;;;;;;4.53;3.90;;;11.20;99.90;;;;;;4992814;28;20472;-65
2023/03/17 09:58:53;;;;;;;4.30;3.73;;;11.30;99.90;;;;;;4983497;28;20489;-66
2023/03/17 10:01:22;;;;;;;6.00;4.00;;;11.40;99.90;;;;;;4979257;28;20504;-66
2023/03/17 10:03:51;;;;;;;4.33;3.93;;;11.50;99.90;;;;;;4983378;28;20480;-66
2023/03/17 10:06:31;;;;;;;4.43;4.03;;;11.60;99.90;;;;;;4985249;28;20479;-66
2023/03/17 10:09:16;;;;;;;4.33;3.60;;;11.70;99.90;;;;;;4996228;28;20472;-65
2023/03/17 10:11:47;;;;;;;4.57;3.70;;;11.80;99.90;;;;;;4993775;28;20582;-66
2023/03/17 10:14:37;;;;;;;4.90;4.50;;;11.90;99.90;;;;;;4995735;28;20456;-66
2023/03/17 10:17:14;;;;;;;5.77;3.70;;;11.90;99.90;;;;;;4994242;28;20531;-65
2023/03/17 10:19:46;;;;;;;4.27;3.90;;;12.00;99.90;;;;;;4995031;28;21721;-66
2023/03/17 10:22:20;;;;;;;4.60;3.50;;;12.10;99.90;;;;;;4988763;28;20493;-66
2023/03/17 10:24:52;;;;;;;4.73;4.10;;;12.30;99.90;;;;;;4987441;28;20472;-66
2023/03/17 10:27:21;;;;;;;4.47;3.50;;;12.30;99.90;;;;;;4992735;28;20852;-66
2023/03/17 10:29:50;;;;;;;4.00;3.60;;;12.40;99.90;;;;;;4996323;28;20488;-65
2023/03/17 10:32:18;;;;;;;4.70;3.90;;;12.40;99.90;;;;;;4996440;28;20488;-66
2023/03/17 10:34:48;;;;;;;4.03;3.50;;;12.50;99.90;;;;;;4994749;28;20476;-66
2023/03/17 10:37:18;;;;;;;3.80;3.40;;;12.50;99.90;;;;;;4997109;28;20483;-66
2023/03/17 10:39:50;;;;;;;4.17;3.50;;;12.60;99.90;;;;;;4971718;28;20571;-66
2023/03/17 10:42:23;;;;;;;4.40;3.87;;;12.80;99.90;;;;;;4990840;28;20497;-66
2023/03/17 10:44:56;;;;;;;5.10;3.77;;;12.90;99.90;;;;;;4986998;28;20481;-65
2023/03/17 10:47:30;;;;;;;4.33;3.13;;;13.00;99.90;;;;;;4993005;28;20475;-66
2023/03/17 10:50:04;;;;;;;3.83;3.33;;;13.00;99.90;;;;;;4993241;28;20496;-66
2023/03/17 10:52:38;;;;;;;3.90;3.60;;;13.10;99.90;;;;;;4990776;28;20511;-66
2023/03/17 10:55:07;;;;;;;3.70;3.40;;;13.20;99.90;;;;;;4992008;28;20491;-65
2023/03/17 10:57:37;;;;;;;3.37;3.07;;;13.30;99.00;;;;;;4988785;28;20483;-66
2023/03/17 11:00:14;;;;;;;3.70;3.40;;;13.40;99.90;;;;;;4991981;28;20592;-65
2023/03/17 11:02:47;;;;;;;3.40;3.10;;;13.40;97.50;;;;;;4979071;28;20684;-65
2023/03/17 11:05:20;;;;;;;3.73;3.33;;;13.50;99.80;;;;;;4980774;28;20472;-66
2023/03/17 11:07:48;;;;;;;3.53;3.23;;;13.60;97.50;;;;;;4994016;28;20472;-65
2023/03/17 11:10:19;;;;;;;3.03;2.83;;;13.70;99.50;;;;;;4988625;28;20500;-65
2023/03/17 11:12:50;;;;;;;3.63;3.33;;;13.80;95.70;;;;;;4975224;28;20489;-66
2023/03/17 11:15:19;;;;;;;4.37;3.43;;;13.90;93.50;;;;;;4996374;28;20469;-66
2023/03/17 11:17:57;;;;;;;3.43;3.10;;;13.90;94.10;;;;;;4983117;28;20477;-66
2023/03/17 11:20:48;;;;;;;3.70;3.40;;;14.00;93.90;;;;;;4983182;28;20572;-65
2023/03/17 11:23:44;;;;;;;3.77;3.47;;;14.10;90.50;;;;;;4978076;28;20495;-66
2023/03/17 11:26:43;;;;;;;3.80;3.07;;;14.20;93.10;;;;;;4997637;28;20473;-66
2023/03/17 11:29:25;;;;;;;4.00;3.60;;;14.30;91.70;;;;;;4989907;28;20464;-65
2023/03/17 11:32:01;;;;;;;3.40;3.10;;;14.50;86.90;;;;;;4988815;28;20476;-66
2023/03/17 11:34:47;;;;;;;3.73;3.43;;;14.70;86.40;;;;;;4991966;28;20974;-66
2023/03/17 11:37:27;;;;;;;3.53;2.93;;;14.90;90.00;;;;;;4995501;28;21268;-66
2023/03/17 11:40:03;;;;;;;5.00;3.97;;;15.10;91.00;;;;;;4999105;28;20488;-66
2023/03/17 11:42:37;;;;;;;5.53;3.53;;;15.20;80.00;;;;;;4992190;28;20491;-66
2023/03/17 11:45:22;;;;;;;4.53;3.17;;;15.40;81.20;;;;;;4992171;28;20479;-65
2023/03/17 11:48:12;;;;;;;3.10;2.90;;;15.50;82.70;;;;;;4995986;28;20476;-66
2023/03/17 11:50:50;;;;;;;11.73;10.50;;;15.60;84.20;;;;;;4990905;28;20487;-63
2023/03/17 11:53:30;;;;;;;37.93;29.77;;;15.80;82.90;;;;;;4980371;28;20478;-63
2023/03/17 11:56:03;;;;;;;14.40;11.40;;;15.90;90.30;;;;;;4985247;28;20484;-63
2023/03/17 11:58:36;;;;;;;15.50;12.80;;;16.00;74.60;;;;;;4980202;28;20475;-63
2023/03/17 12:01:07;;;;;;;5.33;4.83;;;16.10;79.10;;;;;;4971404;28;20522;-63
2023/03/17 12:03:42;;;;;;;4.70;4.30;;;16.30;74.80;;;;;;4987783;28;20574;-65
2023/03/17 12:06:16;;;;;;;4.30;3.60;;;16.40;66.40;;;;;;4977130;28;21211;-64
2023/03/17 12:08:51;;;;;;;4.53;3.03;;;16.50;70.10;;;;;;4983407;28;21123;-64
2023/03/17 12:11:24;;;;;;;3.63;3.17;;;16.70;68.80;;;;;;4975020;28;20494;-65
2023/03/17 12:13:55;;;;;;;3.23;2.93;;;16.80;68.10;;;;;;4978875;28;20476;-65
2023/03/17 12:16:31;;;;;;;4.17;2.80;;;17.00;66.20;;;;;;4980082;28;20471;-66
2023/03/17 12:19:12;;;;;;;3.30;3.10;;;17.20;61.90;;;;;;4977051;28;21123;-65
2023/03/17 12:21:45;;;;;;;3.47;2.90;;;17.40;63.00;;;;;;4980597;28;20495;-64
2023/03/17 12:24:18;;;;;;;4.00;2.83;;;17.50;55.10;;;;;;4984385;28;20471;-65
2023/03/17 12:26:56;;;;;;;4.10;3.43;;;17.70;56.40;;;;;;4982892;28;20500;-67
2023/03/17 12:29:38;;;;;;;2.80;2.60;;;17.90;53.80;;;;;;4979732;28;20495;-67
2023/03/17 12:32:11;;;;;;;2.67;2.47;;;18.10;49.60;;;;;;4986573;28;20480;-67
2023/03/17 12:34:46;;;;;;;2.63;2.43;;;18.30;47.50;;;;;;4994456;28;20472;-67
2023/03/17 12:37:16;;;;;;;3.07;2.77;;;18.50;46.90;;;;;;4992460;28;21676;-67
2023/03/17 12:39:49;;;;;;;4.50;2.70;;;18.80;46.20;;;;;;4993847;28;21008;-67
2023/03/17 12:42:29;;;;;;;3.03;2.73;;;19.20;45.10;;;;;;4998472;28;20484;-67
2023/03/17 12:45:39;;;;;;;3.60;2.30;;;19.50;42.90;;;;;;4997333;28;20559;-67
2023/03/17 12:48:29;;;;;;;3.03;2.83;;;20.00;41.60;;;;;;5001177;28;21021;-65
2023/03/17 12:51:38;;;;;;;3.70;3.10;;;20.80;41.00;;;;;;4997118;28;20882;-65
2023/03/17 12:54:14;;;;;;;3.10;2.80;;;21.80;37.70;;;;;;4993881;28;20502;-67
2023/03/17 12:56:45;;;;;;;2.70;2.50;;;23.00;36.70;;;;;;4993265;28;20486;-66
2023/03/17 12:59:19;;;;;;;3.00;2.80;;;24.40;33.50;;;;;;4993256;28;21119;-68
2023/03/17 13:01:56;;;;;;;2.80;2.60;;;25.90;31.30;;;;;;4991199;28;20503;-67
2023/03/17 13:04:26;;;;;;;2.60;2.40;;;27.50;28.10;;;;;;4989509;28;20562;-68
2023/03/17 13:07:04;;;;;;;2.67;2.47;;;28.50;27.00;;;;;;4986006;28;20467;-67
2023/03/17 13:09:45;;;;;;;3.13;2.87;;;30.10;26.50;;;;;;4993178;28;20472;-67
2023/03/17 13:12:55;;;;;;;2.47;2.27;;;30.90;24.60;;;;;;4990799;28;20491;-67